createdAt,value
2018-05-04T00:00:51.388Z,939.41
2018-05-04T00:01:59.450Z,939.44
2018-05-04T00:03:07.613Z,939.37
2018-05-04T00:04:15.549Z,939.33
2018-05-04T00:05:23.621Z,939.30
2018-05-04T00:06:31.699Z,939.28
2018-05-04T00:07:39.752Z,939.25
2018-05-04T00:08:47.916Z,939.26
2018-05-04T00:09:55.884Z,939.25
2018-05-04T00:11:03.943Z,939.24
2018-05-04T00:12:11.983Z,939.20
2018-05-04T00:13:20.166Z,939.17
2018-05-04T00:14:28.211Z,939.20
2018-05-04T00:15:36.195Z,939.17
2018-05-04T00:16:44.245Z,939.24
2018-05-04T00:17:52.284Z,939.23
2018-05-04T00:19:00.375Z,939.25
2018-05-04T00:20:08.535Z,939.29
2018-05-04T00:21:16.490Z,939.27
2018-05-04T00:22:24.548Z,939.30
2018-05-04T00:23:32.571Z,939.31
2018-05-04T00:24:40.680Z,939.36
2018-05-04T00:25:48.806Z,939.27
2018-05-04T00:26:56.796Z,939.27
2018-05-04T00:28:04.863Z,939.26
2018-05-04T00:29:13.022Z,939.26
2018-05-04T00:30:20.995Z,939.25
2018-05-04T00:31:29.147Z,939.26
2018-05-04T00:32:37.099Z,939.28
2018-05-04T00:33:45.163Z,939.26
2018-05-04T00:34:53.249Z,939.26
2018-05-04T00:36:01.276Z,939.31
2018-05-04T00:37:09.445Z,939.33
2018-05-04T00:38:17.428Z,939.38
2018-05-04T00:39:25.528Z,939.40
2018-05-04T00:40:33.528Z,939.43
2018-05-04T00:41:41.614Z,939.41
2018-05-04T00:42:49.746Z,939.45
2018-05-04T00:43:57.726Z,939.48
2018-05-04T00:45:06.017Z,939.55
2018-05-04T00:46:13.853Z,939.57
2018-05-04T00:47:21.883Z,939.59
2018-05-04T00:48:30.033Z,939.56
2018-05-04T00:49:38.024Z,939.57
2018-05-04T00:50:46.079Z,939.53
2018-05-04T00:51:54.148Z,939.58
2018-05-04T00:53:02.189Z,939.54
2018-05-04T00:54:10.359Z,939.45
2018-05-04T00:55:18.311Z,939.47
2018-05-04T00:56:26.392Z,939.44
2018-05-04T00:57:34.469Z,939.43
2018-05-04T00:58:42.481Z,939.41
2018-05-04T00:59:50.680Z,939.43
2018-05-04T01:00:58.727Z,939.38
2018-05-04T01:02:06.691Z,939.35
2018-05-04T01:03:14.758Z,939.35
2018-05-04T01:04:22.800Z,939.35
2018-05-04T01:05:30.977Z,939.36
2018-05-04T01:06:38.931Z,939.38
2018-05-04T01:07:47.002Z,939.42
2018-05-04T01:08:55.063Z,939.46
2018-05-04T01:10:03.124Z,939.46
2018-05-04T01:11:11.280Z,939.45
2018-05-04T01:12:19.249Z,939.48
2018-05-04T01:13:27.322Z,939.51
2018-05-04T01:14:35.371Z,939.51
2018-05-04T01:15:43.438Z,939.46
2018-05-04T01:16:51.588Z,939.46
2018-05-04T01:17:59.562Z,939.50
2018-05-04T01:19:07.620Z,939.52
2018-05-04T01:20:15.680Z,939.49
2018-05-04T01:21:23.748Z,939.50
2018-05-04T01:22:32.014Z,939.53
2018-05-04T01:23:39.843Z,939.56
2018-05-04T01:24:47.909Z,939.57
2018-05-04T01:25:55.981Z,939.55
2018-05-04T01:27:04.036Z,939.58
2018-05-04T01:28:12.317Z,939.57
2018-05-04T01:29:20.153Z,939.54
2018-05-04T01:30:28.234Z,939.52
2018-05-04T01:31:36.295Z,939.54
2018-05-04T01:32:44.444Z,939.55
2018-05-04T01:33:52.486Z,939.58
2018-05-04T01:35:00.459Z,939.63
2018-05-04T01:36:08.533Z,939.65
2018-05-04T01:37:16.588Z,939.64
2018-05-04T01:38:24.667Z,939.66
2018-05-04T01:39:32.792Z,939.71
2018-05-04T01:40:40.784Z,939.77
2018-05-04T01:41:48.847Z,939.80
2018-05-04T01:42:56.913Z,939.81
2018-05-04T01:44:04.961Z,939.81
2018-05-04T01:45:13.125Z,939.89
2018-05-04T01:46:21.086Z,939.85
2018-05-04T01:47:29.150Z,939.86
2018-05-04T01:48:37.317Z,939.86
2018-05-04T01:49:45.276Z,939.83
2018-05-04T01:50:53.431Z,939.89
2018-05-04T01:52:01.394Z,939.85
2018-05-04T01:53:09.465Z,939.90
2018-05-04T01:54:17.516Z,939.88
2018-05-04T01:55:25.597Z,939.89
2018-05-04T01:56:33.748Z,939.85
2018-05-04T01:57:41.732Z,939.91
2018-05-04T01:58:49.771Z,939.82
2018-05-04T01:59:57.830Z,939.80
2018-05-04T02:01:05.890Z,939.78
2018-05-04T02:02:14.047Z,939.77
2018-05-04T02:03:22.008Z,939.72
2018-05-04T02:04:30.166Z,939.75
2018-05-04T02:05:38.133Z,939.74
2018-05-04T02:06:46.185Z,939.68
2018-05-04T02:07:54.361Z,939.73
2018-05-04T02:09:02.300Z,939.69
2018-05-04T02:10:10.386Z,939.72
2018-05-04T02:11:18.455Z,939.66
2018-05-04T02:12:26.498Z,939.68
2018-05-04T02:13:34.665Z,939.72
2018-05-04T02:14:42.614Z,939.71
2018-05-04T02:15:50.709Z,939.74
2018-05-04T02:16:58.769Z,939.71
2018-05-04T02:18:06.820Z,939.75
2018-05-04T02:19:14.969Z,939.83
2018-05-04T02:20:23.014Z,939.83
2018-05-04T02:21:30.996Z,939.81
2018-05-04T02:22:39.060Z,939.84
2018-05-04T02:23:47.139Z,939.86
2018-05-04T02:24:55.294Z,939.84
2018-05-04T02:26:03.262Z,939.87
2018-05-04T02:27:11.321Z,939.86
2018-05-04T02:28:19.410Z,939.91
2018-05-04T02:29:27.429Z,939.87
2018-05-04T02:30:35.604Z,939.86
2018-05-04T02:31:43.560Z,939.82
2018-05-04T02:32:51.626Z,939.76
2018-05-04T02:33:59.681Z,939.72
2018-05-04T02:35:07.756Z,939.71
2018-05-04T02:36:16.049Z,939.75
2018-05-04T02:37:23.868Z,939.76
2018-05-04T02:38:31.940Z,939.68
2018-05-04T02:39:39.998Z,939.68
2018-05-04T02:40:48.053Z,939.68
2018-05-04T02:42:16.617Z,939.65
2018-05-04T02:43:04.181Z,939.67
2018-05-04T02:44:12.215Z,939.59
2018-05-04T02:45:20.295Z,939.58
2018-05-04T02:46:28.365Z,939.54
2018-05-04T02:47:36.917Z,939.58
2018-05-04T02:48:44.477Z,939.55
2018-05-04T02:49:52.544Z,939.52
2018-05-04T02:51:00.605Z,939.53
2018-05-04T02:52:08.899Z,939.57
2018-05-04T02:53:17.226Z,939.54
2018-05-04T02:54:24.797Z,939.45
2018-05-04T02:55:32.892Z,939.59
2018-05-04T02:56:40.925Z,939.47
2018-05-04T02:57:48.980Z,939.46
2018-05-04T02:58:57.273Z,939.54
2018-05-04T03:00:05.109Z,939.54
2018-05-04T03:01:13.153Z,939.53
2018-05-04T03:02:21.243Z,939.52
2018-05-04T03:03:29.299Z,939.56
2018-05-04T03:04:37.446Z,939.56
2018-05-04T03:05:45.414Z,939.60
2018-05-04T03:06:53.485Z,939.60
2018-05-04T03:08:01.769Z,939.54
2018-05-04T03:09:09.596Z,939.54
2018-05-04T03:10:17.825Z,939.49
2018-05-04T03:11:25.725Z,939.46
2018-05-04T03:12:33.781Z,939.42
2018-05-04T03:13:41.842Z,939.39
2018-05-04T03:14:49.917Z,939.45
2018-05-04T03:15:58.184Z,939.42
2018-05-04T03:17:06.036Z,939.34
2018-05-04T03:18:14.085Z,939.34
2018-05-04T03:19:22.143Z,939.34
2018-05-04T03:20:30.227Z,939.35
2018-05-04T03:21:38.371Z,939.44
2018-05-04T03:22:46.349Z,939.47
2018-05-04T03:23:54.625Z,939.41
2018-05-04T03:25:02.436Z,939.38
2018-05-04T03:26:10.533Z,939.46
2018-05-04T03:27:18.690Z,939.44
2018-05-04T03:28:26.657Z,939.37
2018-05-04T03:29:34.710Z,939.48
2018-05-04T03:30:42.755Z,939.47
2018-05-04T03:31:50.835Z,939.53
2018-05-04T03:32:59.121Z,939.48
2018-05-04T03:34:06.974Z,939.56
2018-05-04T03:35:15.018Z,939.47
2018-05-04T03:36:23.085Z,939.58
2018-05-04T03:37:31.140Z,939.52
2018-05-04T03:38:39.425Z,939.60
2018-05-04T03:39:47.480Z,939.59
2018-05-04T03:40:55.328Z,939.70
2018-05-04T03:42:03.387Z,939.67
2018-05-04T03:43:11.452Z,939.75
2018-05-04T03:44:19.611Z,939.68
2018-05-04T03:45:27.577Z,939.66
2018-05-04T03:46:35.641Z,939.74
2018-05-04T03:47:43.698Z,939.70
2018-05-04T03:48:51.759Z,939.66
2018-05-04T03:50:00.051Z,939.67
2018-05-04T03:51:07.914Z,939.62
2018-05-04T03:52:15.935Z,939.62
2018-05-04T03:53:24.015Z,939.67
2018-05-04T03:54:32.051Z,939.70
2018-05-04T03:55:40.350Z,939.66
2018-05-04T03:56:48.183Z,939.71
2018-05-04T03:57:56.250Z,939.72
2018-05-04T03:59:04.304Z,939.76
2018-05-04T04:00:12.400Z,939.75
2018-05-04T04:01:20.534Z,939.73
2018-05-04T04:02:28.525Z,939.69
2018-05-04T04:03:36.558Z,939.70
2018-05-04T04:04:44.613Z,939.73
2018-05-04T04:05:52.662Z,939.78
2018-05-04T04:07:00.837Z,939.76
2018-05-04T04:08:08.806Z,939.82
2018-05-04T04:09:16.854Z,939.77
2018-05-04T04:10:24.950Z,939.81
2018-05-04T04:11:34.676Z,939.85
2018-05-04T04:12:41.356Z,939.93
2018-05-04T04:13:49.365Z,939.87
2018-05-04T04:14:57.200Z,939.89
2018-05-04T04:16:05.259Z,939.91
2018-05-04T04:17:13.702Z,939.88
2018-05-04T04:18:21.457Z,939.86
2018-05-04T04:19:29.423Z,939.89
2018-05-04T04:20:37.470Z,939.85
2018-05-04T04:21:45.545Z,939.91
2018-05-04T04:22:53.618Z,939.85
2018-05-04T04:24:01.748Z,939.88
2018-05-04T04:25:09.726Z,939.85
2018-05-04T04:26:17.795Z,939.86
2018-05-04T04:27:25.938Z,939.89
2018-05-04T04:28:33.910Z,939.86
2018-05-04T04:29:42.086Z,939.80
2018-05-04T04:30:50.042Z,939.79
2018-05-04T04:31:58.115Z,939.88
2018-05-04T04:33:06.171Z,939.86
2018-05-04T04:34:14.225Z,939.87
2018-05-04T04:35:23.039Z,939.90
2018-05-04T04:36:30.342Z,939.88
2018-05-04T04:37:38.410Z,939.90
2018-05-04T04:38:46.488Z,939.91
2018-05-04T04:39:54.524Z,939.90
2018-05-04T04:41:02.668Z,939.98
2018-05-04T04:42:10.665Z,939.92
2018-05-04T04:43:18.807Z,939.93
2018-05-04T04:44:26.942Z,939.93
2018-05-04T04:45:34.855Z,939.91
2018-05-04T04:46:43.299Z,939.93
2018-05-04T04:47:50.956Z,939.93
2018-05-04T04:48:59.034Z,939.97
2018-05-04T04:50:07.087Z,939.99
2018-05-04T04:51:15.150Z,940.02
2018-05-04T04:52:23.314Z,940.00
2018-05-04T04:53:31.297Z,940.04
2018-05-04T04:54:39.364Z,940.02
2018-05-04T04:55:47.402Z,939.98
2018-05-04T04:56:55.464Z,940.10
2018-05-04T04:58:03.622Z,940.10
2018-05-04T04:59:11.683Z,940.11
2018-05-04T05:00:19.647Z,940.08
2018-05-04T05:01:27.718Z,940.08
2018-05-04T05:02:35.778Z,940.08
2018-05-04T05:03:43.938Z,940.08
2018-05-04T05:04:51.893Z,940.10
2018-05-04T05:05:59.952Z,940.13
2018-05-04T05:07:08.012Z,940.14
2018-05-04T05:08:16.643Z,940.18
2018-05-04T05:09:24.238Z,940.15
2018-05-04T05:10:32.187Z,940.12
2018-05-04T05:11:40.259Z,940.17
2018-05-04T05:12:49.764Z,940.18
2018-05-04T05:13:56.425Z,940.19
2018-05-04T05:15:04.690Z,940.25
2018-05-04T05:16:12.501Z,940.26
2018-05-04T05:17:20.590Z,940.24
2018-05-04T05:18:28.638Z,940.25
2018-05-04T05:19:36.710Z,940.29
2018-05-04T05:20:44.855Z,940.27
2018-05-04T05:21:52.864Z,940.34
2018-05-04T05:23:00.911Z,940.37
2018-05-04T05:24:08.946Z,940.38
2018-05-04T05:25:17.017Z,940.42
2018-05-04T05:26:25.198Z,940.40
2018-05-04T05:27:33.146Z,940.42
2018-05-04T05:28:41.213Z,940.36
2018-05-04T05:29:49.273Z,940.45
2018-05-04T05:30:57.429Z,940.44
2018-05-04T05:32:05.511Z,940.43
2018-05-04T05:33:13.435Z,940.44
2018-05-04T05:34:21.530Z,940.46
2018-05-04T05:35:29.632Z,940.49
2018-05-04T05:36:37.646Z,940.44
2018-05-04T05:37:45.809Z,940.46
2018-05-04T05:38:53.770Z,940.42
2018-05-04T05:40:01.826Z,940.44
2018-05-04T05:41:09.890Z,940.37
2018-05-04T05:42:17.958Z,940.38
2018-05-04T05:43:26.116Z,940.35
2018-05-04T05:44:34.091Z,940.39
2018-05-04T05:45:42.127Z,940.40
2018-05-04T05:46:50.312Z,940.39
2018-05-04T05:47:58.279Z,940.37
2018-05-04T05:49:06.451Z,940.40
2018-05-04T05:50:14.415Z,940.49
2018-05-04T05:51:22.452Z,940.41
2018-05-04T05:52:30.545Z,940.42
2018-05-04T05:53:38.603Z,940.37
2018-05-04T05:54:46.757Z,940.35
2018-05-04T05:55:54.723Z,940.29
2018-05-04T05:57:02.776Z,940.33
2018-05-04T05:58:10.857Z,940.29
2018-05-04T05:59:18.925Z,940.28
2018-05-04T06:00:27.239Z,940.35
2018-05-04T06:01:35.035Z,940.37
2018-05-04T06:02:43.324Z,940.35
2018-05-04T06:03:51.168Z,940.40
2018-05-04T06:04:59.224Z,940.30
2018-05-04T06:06:07.394Z,940.44
2018-05-04T06:07:15.379Z,940.41
2018-05-04T06:08:23.423Z,940.36
2018-05-04T06:09:31.491Z,940.33
2018-05-04T06:10:39.550Z,940.31
2018-05-04T06:11:47.716Z,940.40
2018-05-04T06:12:55.670Z,940.31
2018-05-04T06:14:03.757Z,940.35
2018-05-04T06:15:11.801Z,940.37
2018-05-04T06:16:19.872Z,940.37
2018-05-04T06:17:28.049Z,940.35
2018-05-04T06:18:36.103Z,940.43
2018-05-04T06:19:44.073Z,940.46
2018-05-04T06:20:52.110Z,940.34
2018-05-04T06:22:00.191Z,940.41
2018-05-04T06:23:08.350Z,940.39
2018-05-04T06:24:16.318Z,940.32
2018-05-04T06:25:24.379Z,940.31
2018-05-04T06:26:32.420Z,940.33
2018-05-04T06:27:40.527Z,940.36
2018-05-04T06:28:48.668Z,940.39
2018-05-04T06:29:56.619Z,940.39
2018-05-04T06:31:04.723Z,940.41
2018-05-04T06:32:12.741Z,940.39
2018-05-04T06:33:20.896Z,940.48
2018-05-04T06:34:29.130Z,940.48
2018-05-04T06:35:36.949Z,940.46
2018-05-04T06:36:45.027Z,940.43
2018-05-04T06:37:53.092Z,940.42
2018-05-04T06:39:01.164Z,940.46
2018-05-04T06:40:09.315Z,940.45
2018-05-04T06:41:17.298Z,940.40
2018-05-04T06:42:25.336Z,940.51
2018-05-04T06:43:33.432Z,940.48
2018-05-04T06:44:41.476Z,940.46
2018-05-04T06:45:49.672Z,940.56
2018-05-04T06:46:57.594Z,940.53
2018-05-04T06:48:05.661Z,940.51
2018-05-04T06:49:13.731Z,940.54
2018-05-04T06:50:21.880Z,940.66
2018-05-04T06:51:29.951Z,940.69
2018-05-04T06:52:37.927Z,940.66
2018-05-04T06:53:45.984Z,940.63
2018-05-04T06:54:54.059Z,940.67
2018-05-04T06:56:02.109Z,940.64
2018-05-04T06:57:10.267Z,940.67
2018-05-04T06:58:18.251Z,940.71
2018-05-04T06:59:26.382Z,940.69
2018-05-04T07:00:34.386Z,940.80
2018-05-04T07:01:42.417Z,940.92
2018-05-04T07:02:50.586Z,941.04
2018-05-04T07:03:58.568Z,940.97
2018-05-04T07:05:06.627Z,940.99
2018-05-04T07:06:14.797Z,941.02
2018-05-04T07:07:22.738Z,941.04
2018-05-04T07:08:30.922Z,940.97
2018-05-04T07:09:38.879Z,941.05
2018-05-04T07:10:46.960Z,941.15
2018-05-04T07:11:55.032Z,941.06
2018-05-04T07:13:03.077Z,940.98
2018-05-04T07:14:11.259Z,941.01
2018-05-04T07:15:19.219Z,940.99
2018-05-04T07:16:27.282Z,940.98
2018-05-04T07:17:35.348Z,941.03
2018-05-04T07:18:43.415Z,941.05
2018-05-04T07:19:51.583Z,941.01
2018-05-04T07:20:59.555Z,940.99
2018-05-04T07:22:07.770Z,940.92
2018-05-04T07:23:15.700Z,941.04
2018-05-04T07:24:23.758Z,940.98
2018-05-04T07:25:32.058Z,941.01
2018-05-04T07:26:39.881Z,941.11
2018-05-04T07:27:47.943Z,941.09
2018-05-04T07:28:56.018Z,941.12
2018-05-04T07:30:04.116Z,941.11
2018-05-04T07:31:12.220Z,941.11
2018-05-04T07:32:20.209Z,942.01
2018-05-04T07:33:28.277Z,941.51
2018-05-04T07:34:36.353Z,942.17
2018-05-04T07:35:44.413Z,941.55
2018-05-04T07:36:52.548Z,941.08
2018-05-04T07:38:00.635Z,941.86
2018-05-04T07:39:08.731Z,941.80
2018-05-04T07:40:16.686Z,941.07
2018-05-04T07:41:24.758Z,940.98
2018-05-04T07:42:32.891Z,941.36
2018-05-04T07:43:40.880Z,941.86
2018-05-04T07:44:48.951Z,941.46
2018-05-04T07:45:57.021Z,941.19
2018-05-04T07:47:05.083Z,941.61
2018-05-04T07:48:13.255Z,943.17
2018-05-04T07:49:21.214Z,941.36
2018-05-04T07:50:29.288Z,941.33
2018-05-04T07:51:37.355Z,941.71
2018-05-04T07:52:45.419Z,941.08
2018-05-04T07:53:53.590Z,941.07
2018-05-04T07:55:01.566Z,940.70
2018-05-04T07:56:09.622Z,940.79
2018-05-04T07:57:17.685Z,940.74
2018-05-04T07:58:25.763Z,940.68
2018-05-04T07:59:33.930Z,940.69
2018-05-04T08:00:41.914Z,940.62
2018-05-04T08:01:49.988Z,940.51
2018-05-04T08:02:58.126Z,940.51
2018-05-04T08:04:06.116Z,940.54
2018-05-04T08:05:14.262Z,940.56
2018-05-04T08:06:22.206Z,940.56
2018-05-04T08:07:30.320Z,940.58
2018-05-04T08:08:38.570Z,940.57
2018-05-04T08:09:46.544Z,940.60
2018-05-04T08:10:54.613Z,940.55
2018-05-04T08:12:02.551Z,940.60
2018-05-04T08:13:10.643Z,940.57
2018-05-04T08:14:18.754Z,940.60
2018-05-04T08:15:26.769Z,940.58
2018-05-04T08:16:34.967Z,940.58
2018-05-04T08:17:42.902Z,940.60
2018-05-04T08:18:50.999Z,940.63
2018-05-04T08:19:59.063Z,940.61
2018-05-04T08:21:07.110Z,940.62
2018-05-04T08:22:15.275Z,940.55
2018-05-04T08:23:23.243Z,940.56
2018-05-04T08:24:31.325Z,940.58
2018-05-04T08:25:39.475Z,940.59
2018-05-04T08:26:47.451Z,940.55
2018-05-04T08:27:55.612Z,940.55
2018-05-04T08:29:03.609Z,940.53
2018-05-04T08:30:11.651Z,940.51
2018-05-04T08:31:19.719Z,940.51
2018-05-04T08:32:27.786Z,940.49
2018-05-04T08:33:35.978Z,940.49
2018-05-04T08:34:43.917Z,940.50
2018-05-04T08:35:51.969Z,940.56
2018-05-04T08:37:00.057Z,940.55
2018-05-04T08:38:08.133Z,940.58
2018-05-04T08:39:16.266Z,940.61
2018-05-04T08:40:24.246Z,940.79
2018-05-04T08:41:32.401Z,940.69
2018-05-04T08:42:40.387Z,940.76
2018-05-04T08:43:48.442Z,940.76
2018-05-04T08:44:56.611Z,940.95
2018-05-04T08:46:04.581Z,941.01
2018-05-04T08:47:12.626Z,940.69
2018-05-04T08:48:20.750Z,940.95
2018-05-04T08:49:28.788Z,941.91
2018-05-04T08:50:37.075Z,944.01
2018-05-04T08:51:44.918Z,943.14
2018-05-04T08:52:52.977Z,943.47
2018-05-04T08:54:01.058Z,940.91
2018-05-04T08:55:09.137Z,940.88
2018-05-04T08:56:17.289Z,943.27
2018-05-04T08:57:25.375Z,946.15
2018-05-04T08:58:33.329Z,946.66
2018-05-04T08:59:41.388Z,945.10
2018-05-04T09:00:49.458Z,943.76
2018-05-04T09:01:57.637Z,940.78
2018-05-04T09:03:05.608Z,940.67
2018-05-04T09:04:13.666Z,940.74
2018-05-04T09:05:21.887Z,941.17
2018-05-04T09:06:29.805Z,941.17
2018-05-04T09:07:38.315Z,941.23
2018-05-04T09:08:45.948Z,940.86
2018-05-04T09:09:54.029Z,940.94
2018-05-04T09:11:02.089Z,940.92
2018-05-04T09:12:10.166Z,941.07
2018-05-04T09:13:18.454Z,940.82
2018-05-04T09:14:26.318Z,940.81
2018-05-04T09:15:34.367Z,941.17
2018-05-04T09:16:42.419Z,940.95
2018-05-04T09:17:50.518Z,940.95
2018-05-04T09:18:58.704Z,941.17
2018-05-04T09:20:06.634Z,940.78
2018-05-04T09:21:14.720Z,940.83
2018-05-04T09:22:22.788Z,940.95
2018-05-04T09:23:30.857Z,941.13
2018-05-04T09:24:39.033Z,940.69
2018-05-04T09:25:47.005Z,940.93
2018-05-04T09:26:55.060Z,941.44
2018-05-04T09:28:03.142Z,941.02
2018-05-04T09:29:11.286Z,940.88
2018-05-04T09:30:19.383Z,940.92
2018-05-04T09:31:27.351Z,941.05
2018-05-04T09:32:35.430Z,941.01
2018-05-04T09:33:43.496Z,941.02
2018-05-04T09:34:51.575Z,940.96
2018-05-04T09:35:59.722Z,940.94
2018-05-04T09:37:07.695Z,940.68
2018-05-04T09:38:15.775Z,940.66
2018-05-04T09:39:23.874Z,940.64
2018-05-04T09:40:31.892Z,940.60
2018-05-04T09:41:40.078Z,940.66
2018-05-04T09:42:48.043Z,940.70
2018-05-04T09:43:56.113Z,940.78
2018-05-04T09:45:04.259Z,940.87
2018-05-04T09:46:12.238Z,941.02
2018-05-04T09:47:20.407Z,940.94
2018-05-04T09:48:28.366Z,941.06
2018-05-04T09:49:36.447Z,940.88
2018-05-04T09:50:44.534Z,941.04
2018-05-04T09:51:52.576Z,941.06
2018-05-04T09:53:00.764Z,941.14
2018-05-04T09:54:08.727Z,941.14
2018-05-04T09:55:16.798Z,941.12
2018-05-04T09:56:24.868Z,941.18
2018-05-04T09:57:32.935Z,941.28
2018-05-04T09:58:41.107Z,941.19
2018-05-04T09:59:49.077Z,941.08
2018-05-04T10:00:57.239Z,941.10
2018-05-04T10:02:05.217Z,941.24
2018-05-04T10:03:13.292Z,941.10
2018-05-04T10:04:21.438Z,941.01
2018-05-04T10:05:29.418Z,940.98
2018-05-04T10:06:37.471Z,940.96
2018-05-04T10:07:45.563Z,941.04
2018-05-04T10:08:53.630Z,940.92
2018-05-04T10:10:01.786Z,941.08
2018-05-04T10:11:09.763Z,940.93
2018-05-04T10:12:17.858Z,940.92
2018-05-04T10:13:25.905Z,941.09
2018-05-04T10:14:33.972Z,940.77
2018-05-04T10:15:42.115Z,940.78
2018-05-04T10:16:50.210Z,940.93
2018-05-04T10:17:58.297Z,940.99
2018-05-04T10:19:06.261Z,940.96
2018-05-04T10:20:14.322Z,940.99
2018-05-04T10:21:22.450Z,941.01
2018-05-04T10:22:30.438Z,940.94
2018-05-04T10:23:38.530Z,940.93
2018-05-04T10:24:46.604Z,941.10
2018-05-04T10:25:54.674Z,940.91
2018-05-04T10:27:02.813Z,940.88
2018-05-04T10:28:10.794Z,940.89
2018-05-04T10:29:18.864Z,940.81
2018-05-04T10:30:26.935Z,940.88
2018-05-04T10:31:34.997Z,940.87
2018-05-04T10:32:43.306Z,940.92
2018-05-04T10:33:51.150Z,940.73
2018-05-04T10:34:59.218Z,940.80
2018-05-04T10:36:07.282Z,940.82
2018-05-04T10:37:15.344Z,940.86
2018-05-04T10:38:23.551Z,940.78
2018-05-04T10:39:31.492Z,940.97
2018-05-04T10:40:39.562Z,940.78
2018-05-04T10:41:47.620Z,940.95
2018-05-04T10:42:55.701Z,940.79
2018-05-04T10:44:03.874Z,940.80
2018-05-04T10:45:11.905Z,940.78
2018-05-04T10:46:19.937Z,940.80
2018-05-04T10:47:27.965Z,940.80
2018-05-04T10:48:36.130Z,940.69
2018-05-04T10:49:44.236Z,940.70
2018-05-04T10:50:52.155Z,940.76
2018-05-04T10:52:00.226Z,940.80
2018-05-04T10:53:08.317Z,940.84
2018-05-04T10:54:16.389Z,940.75
2018-05-04T10:55:24.547Z,940.83
2018-05-04T10:56:32.504Z,940.89
2018-05-04T10:57:40.603Z,940.63
2018-05-04T10:58:48.655Z,940.76
2018-05-04T10:59:56.722Z,940.74
2018-05-04T11:01:04.920Z,940.84
2018-05-04T11:02:12.853Z,940.78
2018-05-04T11:03:20.941Z,940.95
2018-05-04T11:04:29.114Z,940.95
2018-05-04T11:05:37.086Z,940.89
2018-05-04T11:06:45.238Z,941.04
2018-05-04T11:07:53.220Z,941.07
2018-05-04T11:09:01.285Z,941.07
2018-05-04T11:10:09.363Z,941.15
2018-05-04T11:11:17.421Z,941.04
2018-05-04T11:12:25.592Z,941.01
2018-05-04T11:13:33.561Z,941.07
2018-05-04T11:14:41.641Z,941.11
2018-05-04T11:15:49.699Z,941.02
2018-05-04T11:16:57.779Z,941.04
2018-05-04T11:18:05.925Z,940.93
2018-05-04T11:19:13.921Z,940.96
2018-05-04T11:20:22.065Z,940.91
2018-05-04T11:21:30.056Z,941.08
2018-05-04T11:22:38.118Z,941.01
2018-05-04T11:23:46.321Z,941.05
2018-05-04T11:24:54.249Z,940.91
2018-05-04T11:26:02.310Z,940.99
2018-05-04T11:27:10.407Z,940.82
2018-05-04T11:28:18.584Z,940.86
2018-05-04T11:29:27.014Z,940.83
2018-05-04T11:30:34.590Z,940.80
2018-05-04T11:31:42.713Z,940.82
2018-05-04T11:32:50.743Z,940.88
2018-05-04T11:33:58.800Z,940.81
2018-05-04T11:35:06.976Z,940.81
2018-05-04T11:36:15.050Z,940.71
2018-05-04T11:37:23.012Z,940.73
2018-05-04T11:38:31.085Z,940.86
2018-05-04T11:39:39.171Z,940.75
2018-05-04T11:40:47.461Z,940.77
2018-05-04T11:41:55.283Z,940.71
2018-05-04T11:43:03.359Z,940.81
2018-05-04T11:44:11.421Z,940.80
2018-05-04T11:45:19.506Z,940.78
2018-05-04T11:46:27.661Z,940.78
2018-05-04T11:47:35.782Z,940.88
2018-05-04T11:48:43.702Z,940.89
2018-05-04T11:49:51.772Z,940.84
2018-05-04T11:50:59.836Z,940.91
2018-05-04T11:52:08.391Z,940.91
2018-05-04T11:53:15.989Z,940.99
2018-05-04T11:54:24.054Z,940.93
2018-05-04T11:55:32.096Z,940.97
2018-05-04T11:56:40.187Z,941.02
2018-05-04T11:57:48.360Z,941.00
2018-05-04T11:58:56.313Z,941.01
2018-05-04T12:00:04.389Z,940.92
2018-05-04T12:01:12.441Z,941.00
2018-05-04T12:02:20.571Z,941.01
2018-05-04T12:03:28.815Z,940.92
2018-05-04T12:04:36.680Z,941.00
2018-05-04T12:05:44.737Z,941.13
2018-05-04T12:06:52.793Z,941.14
2018-05-04T12:08:01.000Z,941.18
2018-05-04T12:09:09.153Z,941.08
2018-05-04T12:10:17.019Z,941.12
2018-05-04T12:11:25.078Z,941.06
2018-05-04T12:12:33.152Z,941.07
2018-05-04T12:13:41.224Z,941.04
2018-05-04T12:14:49.513Z,941.03
2018-05-04T12:15:57.357Z,941.01
2018-05-04T12:17:05.512Z,940.99
2018-05-04T12:18:13.506Z,941.08
2018-05-04T12:19:21.573Z,940.97
2018-05-04T12:20:29.731Z,940.99
2018-05-04T12:21:37.704Z,941.05
2018-05-04T12:22:45.804Z,940.99
2018-05-04T12:23:53.947Z,941.08
2018-05-04T12:25:01.916Z,941.02
2018-05-04T12:26:10.082Z,941.00
2018-05-04T12:27:18.063Z,941.10
2018-05-04T12:28:26.117Z,941.07
2018-05-04T12:29:34.189Z,940.99
2018-05-04T12:30:42.256Z,941.05
2018-05-04T12:31:50.419Z,941.12
2018-05-04T12:32:58.411Z,941.02
2018-05-04T12:34:06.483Z,941.07
2018-05-04T12:35:14.549Z,941.06
2018-05-04T12:36:22.602Z,941.27
2018-05-04T12:37:30.775Z,941.01
2018-05-04T12:38:38.734Z,941.01
2018-05-04T12:39:46.910Z,941.00
2018-05-04T12:40:54.885Z,940.94
2018-05-04T12:42:02.938Z,940.96
2018-05-04T12:43:11.142Z,940.97
2018-05-04T12:44:19.080Z,941.04
2018-05-04T12:45:27.143Z,941.02
2018-05-04T12:46:35.240Z,941.00
2018-05-04T12:47:43.301Z,941.09
2018-05-04T12:48:51.464Z,941.08
2018-05-04T12:49:59.431Z,941.11
2018-05-04T12:51:07.524Z,941.20
2018-05-04T12:52:15.578Z,941.12
2018-05-04T12:53:23.653Z,941.13
2018-05-04T12:54:31.843Z,941.12
2018-05-04T12:55:39.883Z,941.05
2018-05-04T12:56:47.839Z,941.19
2018-05-04T12:57:55.924Z,941.09
2018-05-04T12:59:03.983Z,941.10
2018-05-04T13:00:12.133Z,941.07
2018-05-04T13:01:20.139Z,941.06
2018-05-04T13:02:28.202Z,941.00
2018-05-04T13:03:36.283Z,941.06
2018-05-04T13:04:44.344Z,941.03
2018-05-04T13:05:52.480Z,941.12
2018-05-04T13:07:00.467Z,940.97
2018-05-04T13:08:08.540Z,941.06
2018-05-04T13:09:16.620Z,941.18
2018-05-04T13:10:24.680Z,941.02
2018-05-04T13:11:32.835Z,940.97
2018-05-04T13:12:40.824Z,940.99
2018-05-04T13:13:48.935Z,941.00
2018-05-04T13:14:56.955Z,940.97
2018-05-04T13:16:05.040Z,941.18
2018-05-04T13:17:13.199Z,941.00
2018-05-04T13:18:21.178Z,940.89
2018-05-04T13:19:29.255Z,940.92
2018-05-04T13:20:37.297Z,940.91
2018-05-04T13:21:45.380Z,940.93
2018-05-04T13:22:53.542Z,941.04
2018-05-04T13:24:01.503Z,940.89
2018-05-04T13:25:09.585Z,941.11
2018-05-04T13:26:17.646Z,941.05
2018-05-04T13:27:25.812Z,941.03
2018-05-04T13:28:33.935Z,940.91
2018-05-04T13:29:41.853Z,940.86
2018-05-04T13:30:49.923Z,940.88
2018-05-04T13:31:58.004Z,940.92
2018-05-04T13:33:06.074Z,940.93
2018-05-04T13:34:14.231Z,940.89
2018-05-04T13:35:22.189Z,940.84
2018-05-04T13:36:30.289Z,940.86
2018-05-04T13:37:38.348Z,940.88
2018-05-04T13:38:46.486Z,940.83
2018-05-04T13:39:54.576Z,940.75
2018-05-04T13:41:02.518Z,940.81
2018-05-04T13:42:10.619Z,940.87
2018-05-04T13:43:18.778Z,940.78
2018-05-04T13:44:26.761Z,940.83
2018-05-04T13:45:34.936Z,940.86
2018-05-04T13:46:42.873Z,940.84
2018-05-04T13:47:50.968Z,940.91
2018-05-04T13:48:59.040Z,940.97
2018-05-04T13:50:07.112Z,940.82
2018-05-04T13:51:15.306Z,941.00
2018-05-04T13:52:23.375Z,940.89
2018-05-04T13:53:31.305Z,940.84
2018-05-04T13:54:39.372Z,940.92
2018-05-04T13:55:47.449Z,940.89
2018-05-04T13:56:55.629Z,940.92
2018-05-04T13:58:03.577Z,940.89
2018-05-04T13:59:11.743Z,940.86
2018-05-04T14:00:19.731Z,940.82
2018-05-04T14:01:27.795Z,940.79
2018-05-04T14:02:35.954Z,940.80
2018-05-04T14:03:43.916Z,940.83
2018-05-04T14:04:51.986Z,940.80
2018-05-04T14:06:00.047Z,940.75
2018-05-04T14:07:08.141Z,940.80
2018-05-04T14:08:16.301Z,940.72
2018-05-04T14:09:24.289Z,940.74